Nearby METAR Reports

 

KEWR - Newark, New Jersey, USA
Distance from station: NW 15mi, 25km
Updated: Wed, 21-Feb-2018 12:51am EST
Mostly cloudy
Mostly cloudy
 Wind from SSE
Wind: SSE 6 mph , 9 km/h
Temperature: 59°F , 15°C
Dew Point: 55°F , 13°C
Humidity: 88%
Barometer: 30.31 inHg , 1026.4 hPa
Clouds: Mostly cloudy
Visibility: 10 miles , 16 km
Cloud details: Few Clouds 1000 ft
Mostly cloudy 25000 ft
2018/02/21 05:51 KEWR 210551Z 16005KT 10SM FEW010 BKN250 15/13 A3031 RMK AO2 SLP264 T01500133 10189 20150 58000
KJFK - Nyc/Jfk Arpt, New York, USA
Distance from station: NE 15mi, 25km
Updated: Wed, 21-Feb-2018 1:45am EST
Fog, Mostly cloudy
Fog, Mostly cloudy
 Wind from S
Wind: S 16 mph , 26 km/h
Temperature: 48°F , 9°C
Wind Chill: 42°F , 6°C
Dew Point: 48°F , 9°C
Humidity: 100%
Barometer: 30.33 inHg , 1027.1 hPa
Summary: Fog
Clouds: Mostly cloudy
Visibility: 1/4 mile , 2 km
Cloud details: Mostly cloudy 200 ft
Mostly cloudy 25000 ft
2018/02/21 06:45 KJFK 210645Z 17014KT 1/4SM R04R/1600V2200FT FG BKN002 BKN250 09/09 A3033 RMK AO2 TWR VIS 5
 
KLDJ - Linden, New Jersey, USA
Distance from station: WNW 15mi, 25km
Updated: Wed, 21-Feb-2018 1:55am EST
Clear
Clear
 Wind from calm
Wind: Calm
Temperature: 59°F , 15°C
Dew Point: 57°F , 14°C
Humidity: 94%
Barometer: 30.31 inHg , 1026.4 hPa
Clouds: Clear
Visibility: 10 miles , 16 km
2018/02/21 06:55 KLDJ 210655Z AUTO 00000KT 10SM CLR 15/14 A3031 RMK AO2 T01490135
KNYC - Nyc/Central Park, New York, USA
Distance from station: N 20mi, 32km
Updated: Wed, 21-Feb-2018 12:51am EST
Clear
Clear
 Wind from varies
Wind: varies 6 mph , 9 km/h
Temperature: 63°F , 17°C
Dew Point: 55°F , 13°C
Humidity: 77%
Barometer: 30.34 inHg , 1027.4 hPa
Clouds: Clear
Visibility: 10 miles , 16 km
2018/02/21 05:51 KNYC 210551Z AUTO VRB05KT 10SM CLR 17/13 A3034 RMK AO2 SLP264 T01670133 10194 20150 58001 $
 
KLGA - Nyc/La Guardia, New York, USA
Distance from station: NNE 21mi, 33km
Updated: Wed, 21-Feb-2018 1:40am EST
Mist, Overcast
Mist, Overcast
 Wind from S
Wind: S 6 mph , 9 km/h
Temperature: 52°F , 11°C
Dew Point: 48°F , 9°C
Humidity: 88%
Barometer: 30.31 inHg , 1026.4 hPa
Summary: Mist
Clouds: Overcast
Visibility: 0 miles , 0 km
Cloud details: Overcast 200 ft
2018/02/21 06:40 KLGA 210640Z 18005KT 0SM R04/2600V4500FT BR OVC002 11/09 A3031 RMK AO2 SFC VIS 3/4 T01110094 $
KBLM - Belmar/Farmdale, New Jersey, USA
Distance from station: SSW 24mi, 38km
Updated: Wed, 21-Feb-2018 1:20am EST
Partly cloudy
Partly cloudy
 Wind from S
Wind: S 8 mph , 13 km/h
Temperature: 59°F , 15°C
Dew Point: 57°F , 14°C
Humidity: 94%
Barometer: 30.35 inHg , 1027.8 hPa
Clouds: Partly cloudy
Visibility: 10 miles , 16 km
Cloud details: Few Clouds 700 ft
Partly cloudy 4400 ft
2018/02/21 06:20 KBLM 210620Z AUTO 19007KT 10SM FEW007 SCT044 15/14 A3035 RMK AO2
 
KTEB - Teterboro, New Jersey, USA
Distance from station: N 25mi, 41km
Updated: Wed, 21-Feb-2018 12:51am EST
Clear
Clear
 Wind from SSW
Wind: SSW 5 mph , 7 km/h
Temperature: 55°F , 13°C
Dew Point: 54°F , 12°C
Humidity: 94%
Barometer: 30.30 inHg , 1026.1 hPa
Clouds: Clear
Visibility: 10 miles , 16 km
2018/02/21 05:51 KTEB 210551Z 20004KT 10SM CLR 13/12 A3030 RMK AO2 SLP261 T01280117 10178 20122 58000
KMMU - Morristown Muni, New Jersey, USA
Distance from station: NW 29mi, 47km
Updated: Wed, 21-Feb-2018 1:35am EST
Fog, Overcast
Fog, Overcast
 Wind from calm
Wind: Calm
Temperature: 41°F , 5°C
Dew Point: 41°F , 5°C
Humidity: 100%
Barometer: 30.31 inHg , 1026.4 hPa
Summary: Fog
Clouds: Overcast
Visibility: less than 1/4 mile , 2 km
Cloud details: Overcast 200 ft
2018/02/21 06:35 KMMU 210635Z AUTO 00000KT M1/4SM FG OVC002 05/05 A3031 RMK AO2
 
KCDW - Caldwell, New Jersey, USA
Distance from station: NNW 30mi, 49km
Updated: Wed, 21-Feb-2018 12:53am EST
Clear
Clear
 Wind from SSW
Wind: SSW 3 mph , 6 km/h
Temperature: 59°F , 15°C
Dew Point: 57°F , 14°C
Humidity: 94%
Barometer: 30.31 inHg , 1026.4 hPa
Clouds: Clear
Visibility: 10 miles , 16 km
2018/02/21 05:53 KCDW 210553Z 21003KT 10SM CLR 15/14 A3031 RMK AO2 SLP269 T01500144 10156 20089 58003
KFRG - Farmingdale, New York, USA
Distance from station: ENE 35mi, 56km
Updated: Wed, 21-Feb-2018 1:46am EST
Fog, Overcast
Fog, Overcast
 Wind from SSW
Wind: SSW 8 mph , 13 km/h
Temperature: 50°F , 10°C
Wind Chill: 47°F , 8°C
Dew Point: 50°F , 10°C
Humidity: 100%
Barometer: 30.33 inHg , 1027.1 hPa
Summary: Fog
Clouds: Overcast
Visibility: 1/2 mile , 2 km
Cloud details: Overcast 200 ft
2018/02/21 06:46 KFRG 210646Z AUTO 21007KT 1/2SM FG VV002 10/10 A3033 RMK AO2 T01000100
 
KSMQ - Somerville, New Jersey, USA
Distance from station: WNW 36mi, 58km
Updated: Wed, 21-Feb-2018 1:18am EST
Fog, Overcast
Fog, Overcast
 Wind from NW
Wind: NW 3 mph , 6 km/h
Temperature: 43°F , 6°C
Dew Point: 43°F , 6°C
Humidity: 100%
Barometer: 30.30 inHg , 1026.1 hPa
Summary: Fog
Clouds: Overcast
Visibility: 1/4 mile , 2 km
Cloud details: Overcast 300 ft
2018/02/21 06:18 KSMQ 210618Z AUTO 31003KT 1/4SM FG VV003 06/06 A3030 RMK AO2 T00560056
KNEL - Lakehurst Nas, New Jersey, USA
Distance from station: SSW 38mi, 61km
Updated: Wed, 21-Feb-2018 1:32am EST
Mist, Partly cloudy
Mist, Partly cloudy
 Wind from S
Wind: S 3 mph , 6 km/h
Temperature: 55°F , 13°C
Dew Point: 55°F , 13°C
Humidity: 100%
Barometer: 30.33 inHg , 1027.1 hPa
Summary: Mist
Clouds: Partly cloudy
Visibility: 1 3/4 miles , 5 km
Cloud details: Partly cloudy 4100 ft
2018/02/21 06:32 KNEL 210632Z AUTO 18003KT 1 3/4SM BR SCT041 13/13 A3033 RMK AO2 T01330133 PNO $
 
KHPN - White Plains, New York, USA
Distance from station: NNE 42mi, 68km
Updated: Wed, 21-Feb-2018 1:40am EST
Mist, Mostly cloudy
Mist, Mostly cloudy
 Wind from calm
Wind: Calm
Temperature: 46°F , 8°C
Dew Point: 46°F , 8°C
Humidity: 100%
Barometer: 30.30 inHg , 1026.1 hPa
Summary: Mist
Clouds: Mostly cloudy
Visibility: 1 3/4 miles , 5 km
Cloud details: Mostly cloudy 300 ft
2018/02/21 06:40 KHPN 210640Z 00000KT 1 3/4SM BR BKN003 08/08 A3030 RMK AO2 T00830083
KMJX - Toms River, New Jersey, USA
Distance from station: SSW 42mi, 68km
Updated: Wed, 21-Feb-2018 12:56am EST
Overcast
Overcast
 Wind from S
Wind: S 6 mph , 9 km/h
Temperature: 59°F , 15°C
Dew Point: 57°F , 14°C
Humidity: 94%
Barometer: 30.36 inHg , 1028.1 hPa
Clouds: Overcast
Visibility: 10 miles , 16 km
Cloud details: Overcast 4500 ft
2018/02/21 05:56 KMJX 210556Z AUTO 19005KT 10SM OVC045 15/14 A3036 RMK AO2 SLP288 60001 T01500144 10183 20144 50002
 
KWRI - Wrightst/Mcguire, New Jersey, USA
Distance from station: SW 45mi, 73km
Updated: Wed, 21-Feb-2018 12:56am EST
Clear
Clear
 Wind from SSW
Wind: SSW 9 mph , 15 km/h
Temperature: 59°F , 15°C
Dew Point: 59°F , 15°C
Humidity: 100%
Barometer: 30.32 inHg , 1026.8 hPa
Clouds: Clear
Visibility: 10 miles , 16 km
2018/02/21 05:56 KWRI 210556Z AUTO 21008KT 10SM CLR 15/15 A3032 RMK AO2 SLP267 T01530148 10187 20151 50002 $
KTTN - Trenton, New Jersey, USA
Distance from station: WSW 46mi, 73km
Updated: Wed, 21-Feb-2018 1:23am EST
Mostly cloudy
Mostly cloudy
 Wind from SW
Wind: SW 5 mph , 7 km/h
Temperature: 59°F , 15°C
Dew Point: 57°F , 14°C
Humidity: 94%
Barometer: 30.32 inHg , 1026.8 hPa
Clouds: Mostly cloudy
Visibility: 7 miles , 11 km
Cloud details: Mostly cloudy 900 ft
2018/02/21 06:23 KTTN 210623Z AUTO 22004KT 7SM BKN009 15/14 A3032 RMK AO2 CIG 006V012 T01500139